createdAt,value
2018-12-13T00:02:11.405Z,98746.44
2018-12-13T00:04:39.201Z,98744.97
2018-12-13T00:07:06.799Z,98742.92
2018-12-13T00:09:34.420Z,98737.00
2018-12-13T00:12:02.767Z,98743.25
2018-12-13T00:14:30.394Z,98741.13
2018-12-13T00:16:58.005Z,98744.04
2018-12-13T00:19:25.659Z,98749.66
2018-12-13T00:21:53.662Z,98745.16
2018-12-13T00:24:21.346Z,98744.84
2018-12-13T00:26:49.289Z,98743.99
2018-12-13T00:29:17.159Z,98745.72
2018-12-13T00:31:44.721Z,98737.39
2018-12-13T00:34:12.293Z,98734.47
2018-12-13T00:36:39.957Z,98730.58
2018-12-13T00:39:07.617Z,98729.77
2018-12-13T00:41:35.150Z,98724.03
2018-12-13T00:44:02.884Z,98723.92
2018-12-13T00:46:30.498Z,98721.27
2018-12-13T00:48:58.048Z,98715.53
2018-12-13T00:51:25.718Z,98719.00
2018-12-13T00:53:53.253Z,98717.75
2018-12-13T00:56:20.789Z,98710.50
2018-12-13T00:58:48.411Z,98705.81
2018-12-13T01:01:16.144Z,98705.86
2018-12-13T01:03:43.757Z,98707.66
2018-12-13T01:06:11.420Z,98710.63
2018-12-13T01:08:39.079Z,98713.16
2018-12-13T01:11:06.653Z,98709.60
2018-12-13T01:13:34.305Z,98711.31
2018-12-13T01:16:01.877Z,98718.13
2018-12-13T01:18:29.418Z,98711.09
2018-12-13T01:20:57.131Z,98702.88
2018-12-13T01:23:24.857Z,98698.19
2018-12-13T01:25:52.565Z,98702.55
2018-12-13T01:28:20.196Z,98700.45
2018-12-13T01:30:48.408Z,98706.95
2018-12-13T01:33:15.917Z,98702.14
2018-12-13T01:35:43.463Z,98701.75
2018-12-13T01:38:11.071Z,98699.05
2018-12-13T01:40:38.667Z,98698.56
2018-12-13T01:43:06.251Z,98690.94
2018-12-13T01:45:34.289Z,98679.60
2018-12-13T01:48:01.847Z,98685.70
2018-12-13T01:50:29.642Z,98689.53
2018-12-13T01:52:57.576Z,98681.20
2018-12-13T01:55:25.427Z,98682.45
2018-12-13T01:57:52.998Z,98680.39
2018-12-13T02:00:20.565Z,98676.77
2018-12-13T02:02:48.050Z,98679.86
2018-12-13T02:05:15.818Z,98676.16
2018-12-13T02:07:43.322Z,98675.84
2018-12-13T02:10:11.169Z,98675.37
2018-12-13T02:12:38.771Z,98673.34
2018-12-13T02:15:06.576Z,98669.44
2018-12-13T02:17:34.370Z,98668.66
2018-12-13T02:20:02.060Z,98659.94
2018-12-13T02:22:29.673Z,98660.31
2018-12-13T02:24:57.302Z,98657.06
2018-12-13T02:27:24.871Z,98660.14
2018-12-13T02:29:52.433Z,98661.02
2018-12-13T02:32:20.017Z,98658.36
2018-12-13T02:34:47.638Z,98657.80
2018-12-13T02:37:15.173Z,98649.11
2018-12-13T02:39:42.858Z,98647.00
2018-12-13T02:42:10.662Z,98646.45
2018-12-13T02:44:38.305Z,98642.56
2018-12-13T02:47:05.899Z,98639.70
2018-12-13T02:49:33.449Z,98635.07
2018-12-13T02:52:01.101Z,98634.38
2018-12-13T02:54:28.741Z,98635.97
2018-12-13T02:56:56.343Z,98629.92
2018-12-13T02:59:23.865Z,98639.59
2018-12-13T03:01:51.791Z,98630.95
2018-12-13T03:04:19.328Z,98629.65
2018-12-13T03:06:46.863Z,98628.95
2018-12-13T03:09:14.484Z,98627.00
2018-12-13T03:11:42.077Z,98625.17
2018-12-13T03:14:09.666Z,98623.23
2018-12-13T03:16:37.313Z,98627.65
2018-12-13T03:19:04.829Z,98625.21
2018-12-13T03:21:32.522Z,98619.73
2018-12-13T03:24:00.278Z,98618.44
2018-12-13T03:26:27.862Z,98611.03
2018-12-13T03:28:55.396Z,98616.03
2018-12-13T03:31:22.980Z,98606.45
2018-12-13T03:33:50.719Z,98606.36
2018-12-13T03:36:18.249Z,98607.22
2018-12-13T03:38:45.835Z,98608.47
2018-12-13T03:41:13.355Z,98601.55
2018-12-13T03:43:40.977Z,98600.73
2018-12-13T03:46:08.459Z,98596.45
2018-12-13T03:48:35.995Z,98600.07
2018-12-13T03:51:04.207Z,98597.63
2018-12-13T03:53:31.822Z,98595.62
2018-12-13T03:55:59.405Z,98592.25
2018-12-13T03:58:26.941Z,98586.38
2018-12-13T04:00:54.430Z,98579.50
2018-12-13T04:03:22.086Z,98577.86
2018-12-13T04:05:49.713Z,98572.67
2018-12-13T04:08:17.278Z,98570.64
2018-12-13T04:10:45.029Z,98575.45
2018-12-13T04:13:12.646Z,98570.03
2018-12-13T04:15:40.260Z,98571.47
2018-12-13T04:18:07.850Z,98569.00
2018-12-13T04:20:35.449Z,98565.73
2018-12-13T04:23:02.982Z,98566.16
2018-12-13T04:25:30.544Z,98558.36
2018-12-13T04:27:58.210Z,98555.33
2018-12-13T04:30:25.838Z,98548.13
2018-12-13T04:32:53.332Z,98543.36
2018-12-13T04:35:20.983Z,98546.51
2018-12-13T04:37:48.585Z,98547.80
2018-12-13T04:40:16.100Z,98550.05
2018-12-13T04:42:43.705Z,98537.52
2018-12-13T04:45:11.442Z,98533.52
2018-12-13T04:47:39.021Z,98537.87
2018-12-13T04:50:06.858Z,98532.28
2018-12-13T04:52:34.490Z,98527.95
2018-12-13T04:55:02.274Z,98526.25
2018-12-13T04:57:29.766Z,98526.25
2018-12-13T04:59:57.496Z,98523.19
2018-12-13T05:02:25.226Z,98524.52
2018-12-13T05:04:52.881Z,98521.27
2018-12-13T05:07:20.469Z,98524.23
2018-12-13T05:09:48.824Z,98511.91
2018-12-13T05:12:17.110Z,98515.02
2018-12-13T05:14:44.886Z,98511.48
2018-12-13T05:17:12.531Z,98505.38
2018-12-13T05:19:40.069Z,98498.77
2018-12-13T05:22:07.737Z,98494.04
2018-12-13T05:24:35.351Z,98494.94
2018-12-13T05:27:02.953Z,98490.97
2018-12-13T05:29:30.635Z,98492.78
2018-12-13T05:31:58.482Z,98494.47
2018-12-13T05:34:26.041Z,98495.30
2018-12-13T05:36:53.579Z,98494.87
2018-12-13T05:39:21.095Z,98495.38
2018-12-13T05:41:48.749Z,98492.86
2018-12-13T05:44:20.874Z,98490.26
2018-12-13T05:46:48.452Z,98491.55
2018-12-13T05:49:16.404Z,98493.33
2018-12-13T05:51:43.999Z,98494.66
2018-12-13T05:54:11.545Z,98491.70
2018-12-13T05:56:39.337Z,98494.23
2018-12-13T05:59:06.883Z,98492.20
2018-12-13T06:01:34.382Z,98495.71
2018-12-13T06:04:01.964Z,98503.14
2018-12-13T06:06:29.547Z,98500.98
2018-12-13T06:08:57.127Z,98491.52
2018-12-13T06:11:24.996Z,98488.52
2018-12-13T06:13:52.552Z,98489.85
2018-12-13T06:16:20.131Z,98489.78
2018-12-13T06:18:47.881Z,98492.02
2018-12-13T06:21:15.410Z,98482.45
2018-12-13T06:23:43.003Z,98493.66
2018-12-13T06:26:11.386Z,98484.55
2018-12-13T06:28:38.940Z,98489.68
2018-12-13T06:31:06.498Z,98487.05
2018-12-13T06:33:34.063Z,98488.02
2018-12-13T06:36:01.593Z,98489.75
2018-12-13T06:38:29.164Z,98494.16
2018-12-13T06:43:41.219Z,98490.66
2018-12-13T06:46:08.780Z,98485.95
2018-12-13T06:48:36.312Z,98488.12
2018-12-13T06:51:03.994Z,98486.39
2018-12-13T06:53:31.529Z,98492.81
2018-12-13T06:55:59.256Z,98491.12
2018-12-13T06:58:26.829Z,98494.02
2018-12-13T07:00:54.600Z,98487.08
2018-12-13T07:03:22.277Z,98494.05
2018-12-13T07:05:50.051Z,98488.81
2018-12-13T07:08:17.790Z,98485.48
2018-12-13T07:10:45.318Z,98483.75
2018-12-13T07:13:12.893Z,98491.98
2018-12-13T07:15:40.477Z,98482.09
2018-12-13T07:18:08.452Z,98489.39
2018-12-13T07:20:36.078Z,98482.05
2018-12-13T07:23:03.596Z,98481.05
2018-12-13T07:25:31.505Z,98486.78
2018-12-13T07:27:59.473Z,98480.79
2018-12-13T07:30:27.206Z,98480.45
2018-12-13T07:32:55.010Z,98478.25
2018-12-13T07:35:22.714Z,98476.62
2018-12-13T07:37:50.396Z,98476.16
2018-12-13T07:40:17.928Z,98476.69
2018-12-13T07:42:45.573Z,98470.18
2018-12-13T07:45:13.137Z,98475.78
2018-12-13T07:47:40.839Z,98475.88
2018-12-13T07:50:08.639Z,98469.84
2018-12-13T07:52:36.225Z,98475.91
2018-12-13T07:55:04.121Z,98475.05
2018-12-13T07:57:31.741Z,98476.00
2018-12-13T07:59:59.369Z,98464.35
2018-12-13T08:02:26.927Z,98470.91
2018-12-13T08:04:54.555Z,98472.65
2018-12-13T08:07:22.273Z,98473.48
2018-12-13T08:09:49.945Z,98467.44
2018-12-13T08:12:17.632Z,98468.42
2018-12-13T08:14:45.140Z,98464.60
2018-12-13T08:17:12.720Z,98468.07
2018-12-13T08:19:40.565Z,98464.25
2018-12-13T08:22:08.422Z,98466.08
2018-12-13T08:24:36.055Z,98459.93
2018-12-13T08:27:03.701Z,98464.78
2018-12-13T08:29:31.242Z,98461.69
2018-12-13T08:31:58.878Z,98460.47
2018-12-13T08:34:26.594Z,98462.58
2018-12-13T08:36:54.142Z,98458.60
2018-12-13T08:39:21.805Z,98461.59
2018-12-13T08:41:49.434Z,98462.56
2018-12-13T08:44:16.998Z,98461.81
2018-12-13T08:46:44.513Z,98462.69
2018-12-13T08:49:12.360Z,98457.04
2018-12-13T08:51:39.881Z,98457.06
2018-12-13T08:54:07.433Z,98456.27
2018-12-13T08:56:34.982Z,98456.28
2018-12-13T08:59:02.527Z,98455.44
2018-12-13T09:01:30.326Z,98448.44
2018-12-13T09:03:57.940Z,98450.16
2018-12-13T09:06:25.629Z,98450.70
2018-12-13T09:08:53.269Z,98447.95
2018-12-13T09:11:21.004Z,98456.63
2018-12-13T09:13:48.521Z,98456.70
2018-12-13T09:16:16.114Z,98452.81
2018-12-13T09:18:50.310Z,98461.05
2018-12-13T09:21:18.070Z,98461.15
2018-12-13T09:23:45.789Z,98459.53
2018-12-13T09:26:13.445Z,98454.36
2018-12-13T09:28:41.120Z,98452.26
2018-12-13T09:31:08.666Z,98455.71
2018-12-13T09:33:37.259Z,98449.64
2018-12-13T09:36:04.765Z,98459.17
2018-12-13T09:38:32.545Z,98452.72
2018-12-13T09:41:00.183Z,98451.05
2018-12-13T09:43:27.886Z,98442.39
2018-12-13T09:45:55.577Z,98441.59
2018-12-13T09:48:23.397Z,98441.53
2018-12-13T09:50:51.141Z,98443.77
2018-12-13T09:53:18.741Z,98438.99
2018-12-13T09:55:46.412Z,98440.31
2018-12-13T09:58:14.091Z,98433.41
2018-12-13T10:00:41.593Z,98426.52
2018-12-13T10:03:09.359Z,98426.95
2018-12-13T10:05:36.845Z,98418.70
2018-12-13T10:08:04.436Z,98421.78
2018-12-13T10:10:31.949Z,98415.29
2018-12-13T10:12:59.471Z,98413.03
2018-12-13T10:15:32.040Z,98407.85
2018-12-13T10:17:56.773Z,98416.91
2018-12-13T10:20:24.446Z,98408.66
2018-12-13T10:22:51.993Z,98409.11
2018-12-13T10:25:19.539Z,98414.78
2018-12-13T10:27:47.101Z,98403.45
2018-12-13T10:30:14.741Z,98419.09
2018-12-13T10:32:42.315Z,98406.48
2018-12-13T10:35:11.519Z,98403.00
2018-12-13T10:37:39.414Z,98402.52
2018-12-13T10:40:07.299Z,98394.34
2018-12-13T10:42:34.994Z,98393.91
2018-12-13T10:45:02.693Z,98392.22
2018-12-13T10:47:30.200Z,98386.54
2018-12-13T10:49:57.898Z,98387.39
2018-12-13T10:52:25.476Z,98389.09
2018-12-13T10:54:53.587Z,98387.38
2018-12-13T10:57:21.234Z,98390.91
2018-12-13T10:59:48.778Z,98381.35
2018-12-13T11:02:21.736Z,98383.98
2018-12-13T11:04:49.370Z,98380.09
2018-12-13T11:07:16.974Z,98381.83
2018-12-13T11:09:44.636Z,98381.39
2018-12-13T11:12:12.391Z,98378.36
2018-12-13T11:14:39.980Z,98378.81
2018-12-13T11:17:07.548Z,98374.88
2018-12-13T11:19:35.153Z,98371.87
2018-12-13T11:22:02.753Z,98368.39
2018-12-13T11:24:30.553Z,98363.61
2018-12-13T11:27:02.583Z,98360.55
2018-12-13T11:29:35.790Z,98357.53
2018-12-13T11:32:03.458Z,98358.37
2018-12-13T11:34:30.945Z,98357.94
2018-12-13T11:36:58.545Z,98359.23
2018-12-13T11:39:26.204Z,98355.73
2018-12-13T11:41:53.767Z,98353.14
2018-12-13T11:44:21.484Z,98352.69
2018-12-13T11:46:49.310Z,98350.95
2018-12-13T11:49:16.785Z,98348.25
2018-12-13T11:51:44.318Z,98351.70
2018-12-13T11:54:17.195Z,98346.03
2018-12-13T11:56:45.191Z,98343.01
2018-12-13T11:59:12.822Z,98345.19
2018-12-13T12:01:40.294Z,98349.50
2018-12-13T12:04:07.815Z,98342.95
2018-12-13T12:06:35.489Z,98343.79
2018-12-13T12:09:04.213Z,98342.96
2018-12-13T12:11:31.847Z,98346.06
2018-12-13T12:13:59.431Z,98345.63
2018-12-13T12:16:26.939Z,98346.47
2018-12-13T12:18:54.450Z,98351.25
2018-12-13T12:21:22.002Z,98340.77
2018-12-13T12:23:49.500Z,98344.69
2018-12-13T12:26:17.093Z,98342.95
2018-12-13T12:28:44.661Z,98341.23
2018-12-13T12:31:12.423Z,98345.58
2018-12-13T12:33:39.917Z,98341.58
2018-12-13T12:36:07.569Z,98340.73
2018-12-13T12:38:35.092Z,98344.17
2018-12-13T12:41:02.683Z,98351.51
2018-12-13T12:43:30.188Z,98341.54
2018-12-13T12:45:57.903Z,98342.83
2018-12-13T12:48:25.441Z,98341.98
2018-12-13T12:50:55.135Z,98343.62
2018-12-13T12:53:22.841Z,98344.09
2018-12-13T12:55:50.391Z,98343.23
2018-12-13T12:58:18.080Z,98338.45
2018-12-13T13:00:45.610Z,98339.77
2018-12-13T13:03:13.260Z,98341.06
2018-12-13T13:05:40.865Z,98329.28
2018-12-13T13:08:08.367Z,98334.02
2018-12-13T13:10:35.945Z,98336.60
2018-12-13T13:13:03.617Z,98327.94
2018-12-13T13:15:31.280Z,98328.42
2018-12-13T13:17:58.823Z,98329.73
2018-12-13T13:20:26.396Z,98330.16
2018-12-13T13:22:53.879Z,98327.50
2018-12-13T13:25:21.558Z,98331.38
2018-12-13T13:27:49.110Z,98332.64
2018-12-13T13:30:16.728Z,98328.77
2018-12-13T13:32:44.223Z,98326.50
2018-12-13T13:35:11.941Z,98326.55
2018-12-13T13:37:39.451Z,98319.17
2018-12-13T13:40:07.099Z,98321.76
2018-12-13T13:42:34.832Z,98321.68
2018-12-13T13:45:03.054Z,98321.67
2018-12-13T13:47:30.563Z,98321.67
2018-12-13T13:49:58.150Z,98316.92
2018-12-13T13:52:25.726Z,98317.76
2018-12-13T13:54:53.382Z,98316.41
2018-12-13T13:57:20.943Z,98316.02
2018-12-13T13:59:48.458Z,98313.43
2018-12-13T14:02:16.030Z,98305.12
2018-12-13T14:04:43.706Z,98307.76
2018-12-13T14:07:11.241Z,98308.09
2018-12-13T14:09:38.923Z,98313.73
2018-12-13T14:12:06.435Z,98317.17
2018-12-13T14:14:33.934Z,98310.63
2018-12-13T14:17:01.537Z,98308.09
2018-12-13T14:19:29.155Z,98308.08
2018-12-13T14:21:56.653Z,98314.08
2018-12-13T14:24:24.340Z,98313.25
2018-12-13T14:26:52.045Z,98313.20
2018-12-13T14:29:19.604Z,98317.13
2018-12-13T14:31:47.113Z,98315.80
2018-12-13T14:34:14.750Z,98321.88
2018-12-13T14:36:42.381Z,98322.34
2018-12-13T14:39:09.951Z,98326.17
2018-12-13T14:41:37.524Z,98321.34
2018-12-13T14:44:05.241Z,98329.62
2018-12-13T14:46:32.737Z,98331.36
2018-12-13T14:49:00.462Z,98329.60
2018-12-13T14:51:28.900Z,98336.11
2018-12-13T14:53:56.522Z,98334.80
2018-12-13T14:56:24.185Z,98336.55
2018-12-13T14:58:51.716Z,98337.89
2018-12-13T15:01:19.269Z,98336.59
2018-12-13T15:03:46.971Z,98343.95
2018-12-13T15:06:14.623Z,98340.11
2018-12-13T15:08:42.200Z,98338.81
2018-12-13T15:11:09.734Z,98337.05
2018-12-13T15:13:37.391Z,98346.59
2018-12-13T15:16:06.517Z,98344.04
2018-12-13T15:18:34.087Z,98343.61
2018-12-13T15:21:01.631Z,98346.19
2018-12-13T15:23:29.218Z,98339.31
2018-12-13T15:25:57.156Z,98339.72
2018-12-13T15:28:24.801Z,98341.02
2018-12-13T15:30:52.478Z,98341.00
2018-12-13T15:33:20.502Z,98345.77
2018-12-13T15:35:48.152Z,98344.97
2018-12-13T15:38:15.650Z,98346.28
2018-12-13T15:40:43.342Z,98348.91
2018-12-13T15:43:10.853Z,98349.78
2018-12-13T15:45:38.557Z,98348.11
2018-12-13T15:48:06.130Z,98345.48
2018-12-13T15:50:33.785Z,98345.48
2018-12-13T15:53:01.349Z,98349.41
2018-12-13T15:55:28.856Z,98352.86
2018-12-13T15:57:56.469Z,98355.88
2018-12-13T16:00:24.247Z,98356.77
2018-12-13T16:05:37.607Z,98358.07
2018-12-13T16:08:05.245Z,98352.88
2018-12-13T16:10:33.072Z,98352.02
2018-12-13T16:13:00.669Z,98355.06
2018-12-13T16:15:28.213Z,98355.00
2018-12-13T16:17:55.785Z,98350.75
2018-12-13T16:20:23.677Z,98352.06
2018-12-13T16:22:51.334Z,98353.38
2018-12-13T16:25:18.895Z,98350.77
2018-12-13T16:27:46.537Z,98350.31
2018-12-13T16:30:14.616Z,98352.91
2018-12-13T16:32:42.255Z,98352.06
2018-12-13T16:35:09.816Z,98350.38
2018-12-13T16:37:37.519Z,98353.84
2018-12-13T16:40:10.376Z,98353.81
2018-12-13T16:42:34.941Z,98346.92
2018-12-13T16:45:02.725Z,98346.59
2018-12-13T16:47:30.297Z,98344.83
2018-12-13T16:52:43.109Z,98346.19
2018-12-13T16:55:10.829Z,98349.23
2018-12-13T16:57:38.751Z,98348.69
2018-12-13T17:00:06.968Z,98345.73
2018-12-13T17:02:34.472Z,98342.25
2018-12-13T17:05:03.500Z,98346.98
2018-12-13T17:07:31.339Z,98351.41
2018-12-13T17:09:58.875Z,98350.11
2018-12-13T17:12:26.473Z,98350.98
2018-12-13T17:14:54.137Z,98346.17
2018-12-13T17:17:21.749Z,98348.38
2018-12-13T17:19:49.271Z,98348.79
2018-12-13T17:22:16.810Z,98345.72
2018-12-13T17:24:44.475Z,98347.48
2018-12-13T17:27:12.000Z,98345.77
2018-12-13T17:29:39.674Z,98340.52
2018-12-13T17:32:07.176Z,98343.92
2018-12-13T17:34:34.890Z,98345.28
2018-12-13T17:37:02.407Z,98339.20
2018-12-13T17:39:30.193Z,98338.36
2018-12-13T17:41:57.754Z,98335.34
2018-12-13T17:44:25.294Z,98336.21
2018-12-13T17:46:52.975Z,98343.16
2018-12-13T17:49:20.634Z,98345.77
2018-12-13T17:51:48.141Z,98337.50
2018-12-13T17:54:15.676Z,98336.56
2018-12-13T17:56:43.366Z,98337.89
2018-12-13T17:59:10.891Z,98331.84
2018-12-13T18:01:38.894Z,98331.80
2018-12-13T18:04:06.767Z,98328.34
2018-12-13T18:06:34.675Z,98330.05
2018-12-13T18:09:02.446Z,98332.70
2018-12-13T18:11:30.143Z,98324.45
2018-12-13T18:13:57.836Z,98329.64
2018-12-13T18:16:25.482Z,98330.05
2018-12-13T18:18:53.148Z,98335.66
2018-12-13T18:21:20.891Z,98343.02
2018-12-13T18:23:48.586Z,98340.84
2018-12-13T18:26:17.339Z,98339.58
2018-12-13T18:28:44.889Z,98340.45
2018-12-13T18:31:12.484Z,98339.58
2018-12-13T18:33:40.253Z,98333.03
2018-12-13T18:36:07.777Z,98334.31
2018-12-13T18:38:35.549Z,98333.45
2018-12-13T18:41:03.252Z,98334.77
2018-12-13T18:43:30.792Z,98331.63
2018-12-13T18:45:58.413Z,98335.14
2018-12-13T18:48:26.027Z,98334.71
2018-12-13T18:50:53.759Z,98332.13
2018-12-13T18:53:21.405Z,98331.69
2018-12-13T18:55:50.154Z,98338.66
2018-12-13T18:58:17.781Z,98334.74
2018-12-13T19:00:45.520Z,98341.31
2018-12-13T19:03:13.027Z,98336.50
2018-12-13T19:05:40.878Z,98345.63
2018-12-13T19:08:08.479Z,98343.45
2018-12-13T19:10:41.781Z,98349.03
2018-12-13T19:13:06.010Z,98342.10
2018-12-13T19:15:33.717Z,98343.88
2018-12-13T19:18:02.027Z,98348.22
2018-12-13T19:20:29.662Z,98349.94
2018-12-13T19:22:57.265Z,98347.72
2018-12-13T19:25:24.770Z,98346.42
2018-12-13T19:27:52.344Z,98351.20
2018-12-13T19:30:20.323Z,98357.23
2018-12-13T19:32:47.914Z,98351.16
2018-12-13T19:35:19.353Z,98355.09
2018-12-13T19:37:45.434Z,98355.58
2018-12-13T19:40:13.428Z,98358.16
2018-12-13T19:42:40.941Z,98355.53
2018-12-13T19:45:08.681Z,98356.48
2018-12-13T19:47:36.310Z,98350.82
2018-12-13T19:50:04.055Z,98356.93
2018-12-13T19:52:31.753Z,98358.19
2018-12-13T19:54:59.302Z,98359.48
2018-12-13T19:57:26.854Z,98360.33
2018-12-13T19:59:54.921Z,98366.37
2018-12-13T20:02:22.653Z,98372.42
2018-12-13T20:04:50.286Z,98364.63
2018-12-13T20:07:18.261Z,98371.14
2018-12-13T20:09:46.272Z,98370.73
2018-12-13T20:12:13.777Z,98368.50
2018-12-13T20:14:41.525Z,98365.03
2018-12-13T20:17:09.060Z,98371.14
2018-12-13T20:19:36.963Z,98368.52
2018-12-13T20:22:04.653Z,98373.70
2018-12-13T20:24:32.183Z,98369.39
2018-12-13T20:26:59.757Z,98375.41
2018-12-13T20:29:27.485Z,98370.71
2018-12-13T20:31:55.166Z,98372.47
2018-12-13T20:34:22.686Z,98371.18
2018-12-13T20:36:50.199Z,98371.20
2018-12-13T20:39:17.731Z,98374.66
2018-12-13T20:41:45.238Z,98378.61
2018-12-13T20:44:12.765Z,98381.17
2018-12-13T20:46:40.285Z,98382.94
2018-12-13T20:49:08.056Z,98381.20
2018-12-13T20:51:35.564Z,98384.60
2018-12-13T20:54:03.096Z,98388.08
2018-12-13T20:56:30.683Z,98385.45
2018-12-13T20:58:58.210Z,98386.79
2018-12-13T21:01:25.833Z,98392.86
2018-12-13T21:03:53.409Z,98390.27
2018-12-13T21:06:20.995Z,98393.72
2018-12-13T21:08:48.549Z,98394.13
2018-12-13T21:11:16.112Z,98397.17
2018-12-13T21:13:43.683Z,98401.50
2018-12-13T21:16:11.224Z,98402.80
2018-12-13T21:18:39.326Z,98398.39
2018-12-13T21:21:07.107Z,98395.29
2018-12-13T21:23:34.933Z,98393.51
2018-12-13T21:26:02.697Z,98400.09
2018-12-13T21:28:30.221Z,98400.11
2018-12-13T21:30:57.850Z,98398.44
2018-12-13T21:33:25.385Z,98400.20
2018-12-13T21:35:53.011Z,98397.53
2018-12-13T21:38:20.619Z,98402.78
2018-12-13T21:40:48.142Z,98403.67
2018-12-13T21:43:15.687Z,98404.97
2018-12-13T21:45:43.468Z,98409.31
2018-12-13T21:48:11.509Z,98408.85
2018-12-13T21:50:39.228Z,98412.67
2018-12-13T21:53:06.876Z,98407.44
2018-12-13T21:55:34.681Z,98408.37
2018-12-13T21:58:02.480Z,98417.03
2018-12-13T22:00:30.078Z,98419.22
2018-12-13T22:02:57.752Z,98421.38
2018-12-13T22:05:25.594Z,98419.64
2018-12-13T22:07:53.621Z,98420.52
2018-12-13T22:10:21.280Z,98417.47
2018-12-13T22:12:49.118Z,98417.85
2018-12-13T22:15:16.867Z,98413.88
2018-12-13T22:17:45.334Z,98419.97
2018-12-13T22:20:14.179Z,98415.16
2018-12-13T22:23:02.010Z,98409.52
2018-12-13T22:25:43.671Z,98402.65
2018-12-13T22:28:11.501Z,98406.16
2018-12-13T22:36:50.265Z,98411.34
2018-12-13T22:39:18.514Z,98400.02
2018-12-13T22:42:18.986Z,98406.52
2018-12-13T22:45:08.063Z,98412.64
2018-12-13T22:47:36.209Z,98408.77
2018-12-13T22:50:04.065Z,98413.48
2018-12-13T22:52:31.682Z,98419.17
2018-12-13T22:58:08.578Z,98416.16
2018-12-13T23:00:36.386Z,98420.45
2018-12-13T23:03:25.621Z,98425.22
2018-12-13T23:05:54.665Z,98423.87
2018-12-13T23:08:22.251Z,98426.07
2018-12-13T23:10:52.688Z,98427.85
2018-12-13T23:13:25.588Z,98425.22
2018-12-13T23:15:54.806Z,98423.06
2018-12-13T23:18:22.591Z,98432.58
2018-12-13T23:20:50.683Z,98429.55
2018-12-13T23:23:18.800Z,98429.97
2018-12-13T23:25:46.335Z,98433.03
2018-12-13T23:28:13.884Z,98425.56
2018-12-13T23:30:41.572Z,98429.91
2018-12-13T23:33:09.422Z,98434.27
2018-12-13T23:35:36.931Z,98431.20
2018-12-13T23:38:04.522Z,98434.59
2018-12-13T23:40:32.114Z,98430.23
2018-12-13T23:42:59.846Z,98435.92
2018-12-13T23:45:27.778Z,98430.70
2018-12-13T23:47:55.393Z,98430.64
2018-12-13T23:50:22.949Z,98435.88
2018-12-13T23:52:50.467Z,98438.12
2018-12-13T23:55:18.009Z,98438.58
2018-12-13T23:57:45.568Z,98442.89
